createdAt,value
2023-01-17T00:01:07.368Z,4.82
2023-01-17T00:03:33.829Z,4.93
2023-01-17T00:06:19.050Z,5.30
2023-01-17T00:09:17.724Z,4.65
2023-01-17T00:11:44.068Z,4.93
2023-01-17T00:14:10.375Z,5.82
2023-01-17T00:16:36.702Z,6.35
2023-01-17T00:19:21.985Z,4.45
2023-01-17T00:22:06.908Z,4.00
2023-01-17T00:24:51.805Z,6.00
2023-01-17T00:27:18.093Z,6.47
2023-01-17T00:29:44.381Z,5.00
2023-01-17T00:32:10.708Z,6.05
2023-01-17T00:34:36.996Z,5.50
2023-01-17T00:37:03.312Z,7.10
2023-01-17T00:39:29.613Z,5.35
2023-01-17T00:41:56.032Z,5.45
2023-01-17T00:44:41.227Z,6.50
2023-01-17T00:47:26.498Z,5.25
2023-01-17T00:50:11.803Z,6.18
2023-01-17T00:52:56.818Z,4.78
2023-01-17T00:55:41.730Z,6.40
2023-01-17T00:58:26.705Z,5.97
2023-01-17T01:01:11.717Z,5.10
2023-01-17T01:03:57.040Z,6.00
2023-01-17T01:06:41.948Z,5.10
2023-01-17T01:09:26.729Z,5.35
2023-01-17T01:12:11.847Z,6.12
2023-01-17T01:14:56.838Z,5.87
2023-01-17T01:17:41.758Z,5.87
2023-01-17T01:20:26.728Z,6.22
2023-01-17T01:23:11.629Z,4.90
2023-01-17T01:25:56.827Z,5.12
2023-01-17T01:28:41.712Z,4.80
2023-01-17T01:31:26.746Z,2.87
2023-01-17T01:33:53.697Z,1.73
2023-01-17T01:36:20.026Z,1.92
2023-01-17T01:38:46.349Z,1.98
2023-01-17T01:41:12.652Z,2.17
2023-01-17T01:43:39.026Z,2.53
2023-01-17T01:46:05.390Z,1.70
2023-01-17T01:48:31.714Z,1.65
2023-01-17T01:50:58.707Z,3.25
2023-01-17T01:53:25.077Z,2.78
2023-01-17T01:55:51.489Z,2.12
2023-01-17T01:58:17.797Z,2.10
2023-01-17T02:00:44.133Z,3.35
2023-01-17T02:03:10.493Z,3.12
2023-01-17T02:05:36.816Z,3.05
2023-01-17T02:08:03.151Z,2.55
2023-01-17T02:10:29.484Z,1.83
2023-01-17T02:12:55.782Z,2.50
2023-01-17T02:15:22.157Z,2.00
2023-01-17T02:17:48.505Z,2.72
2023-01-17T02:20:14.863Z,3.15
2023-01-17T02:22:41.205Z,1.45
2023-01-17T02:25:07.520Z,1.10
2023-01-17T02:27:33.823Z,1.73
2023-01-17T02:30:00.206Z,1.40
2023-01-17T02:32:26.503Z,1.17
2023-01-17T02:34:52.832Z,1.67
2023-01-17T02:37:19.246Z,1.02
2023-01-17T02:39:45.561Z,2.42
2023-01-17T02:42:11.880Z,1.40
2023-01-17T02:44:38.239Z,0.95
2023-01-17T02:47:04.591Z,1.05
2023-01-17T02:49:30.909Z,1.60
2023-01-17T02:51:57.207Z,0.75
2023-01-17T02:54:23.552Z,0.98
2023-01-17T02:56:49.923Z,0.80
2023-01-17T02:59:16.235Z,0.70
2023-01-17T03:01:42.671Z,1.05
2023-01-17T03:04:09.054Z,0.98
2023-01-17T03:06:35.370Z,0.75
2023-01-17T03:09:01.721Z,0.50
2023-01-17T03:11:28.048Z,0.40
2023-01-17T03:13:54.356Z,0.43
2023-01-17T03:16:21.278Z,0.47
2023-01-17T03:18:47.672Z,0.50
2023-01-17T03:21:14.151Z,0.45
2023-01-17T03:23:40.521Z,1.08
2023-01-17T03:26:06.860Z,0.57
2023-01-17T03:28:33.187Z,0.40
2023-01-17T03:30:59.631Z,0.30
2023-01-17T03:33:25.964Z,0.50
2023-01-17T03:35:52.877Z,0.50
2023-01-17T03:38:19.600Z,0.40
2023-01-17T03:40:45.906Z,0.50
2023-01-17T03:43:12.252Z,0.50
2023-01-17T03:45:38.623Z,1.10
2023-01-17T03:48:05.013Z,0.50
2023-01-17T03:50:31.331Z,0.45
2023-01-17T03:52:57.682Z,1.98
2023-01-17T03:55:24.041Z,0.50
2023-01-17T03:57:50.377Z,1.15
2023-01-17T04:00:17.162Z,0.50
2023-01-17T04:02:43.505Z,0.60
2023-01-17T04:05:09.897Z,0.50
2023-01-17T04:07:36.261Z,0.60
2023-01-17T04:10:02.747Z,0.50
2023-01-17T04:12:29.076Z,0.50
2023-01-17T04:14:55.390Z,0.65
2023-01-17T04:17:21.709Z,0.50
2023-01-17T04:19:48.033Z,0.77
2023-01-17T04:22:14.338Z,0.60
2023-01-17T04:24:40.661Z,1.48
2023-01-17T04:27:07.013Z,0.60
2023-01-17T04:29:33.341Z,0.65
2023-01-17T04:31:59.666Z,0.50
2023-01-17T04:34:26.398Z,0.82
2023-01-17T04:36:52.747Z,0.75
2023-01-17T04:39:19.129Z,1.15
2023-01-17T04:41:45.460Z,1.75
2023-01-17T04:44:11.924Z,0.80
2023-01-17T04:46:38.252Z,1.08
2023-01-17T04:49:04.576Z,0.95
2023-01-17T04:51:30.917Z,0.90
2023-01-17T04:53:57.250Z,1.00
2023-01-17T04:56:23.603Z,0.80
2023-01-17T04:58:49.940Z,0.82
2023-01-17T05:01:16.379Z,0.85
2023-01-17T05:03:42.801Z,2.20
2023-01-17T05:06:09.113Z,0.98
2023-01-17T05:08:35.487Z,1.15
2023-01-17T05:11:01.830Z,0.82
2023-01-17T05:13:28.173Z,1.40
2023-01-17T05:15:54.542Z,0.90
2023-01-17T05:18:20.942Z,1.10
2023-01-17T05:20:47.382Z,1.48
2023-01-17T05:23:13.702Z,2.33
2023-01-17T05:25:44.854Z,1.05
2023-01-17T05:28:11.180Z,1.95
2023-01-17T05:30:37.561Z,1.37
2023-01-17T05:33:03.874Z,1.48
2023-01-17T05:35:30.322Z,0.70
2023-01-17T05:37:56.638Z,1.23
2023-01-17T05:40:22.986Z,1.37
2023-01-17T05:42:49.326Z,0.80
2023-01-17T05:45:17.137Z,1.15
2023-01-17T05:47:43.615Z,0.82
2023-01-17T05:50:09.927Z,0.70
2023-01-17T05:52:36.220Z,1.17
2023-01-17T05:55:02.536Z,1.30
2023-01-17T05:57:28.847Z,0.62
2023-01-17T05:59:55.165Z,1.85
2023-01-17T06:02:21.537Z,0.70
2023-01-17T06:04:47.909Z,5.82
2023-01-17T06:07:14.264Z,0.70
2023-01-17T06:09:40.592Z,1.77
2023-01-17T06:12:06.928Z,1.33
2023-01-17T06:14:33.223Z,1.10
2023-01-17T06:16:59.549Z,1.90
2023-01-17T06:19:25.915Z,1.23
2023-01-17T06:21:52.310Z,1.98
2023-01-17T06:24:18.616Z,2.22
2023-01-17T06:26:44.916Z,0.85
2023-01-17T06:29:11.229Z,1.05
2023-01-17T06:31:37.691Z,1.00
2023-01-17T06:34:04.353Z,1.30
2023-01-17T06:36:30.659Z,1.05
2023-01-17T06:38:57.210Z,1.10
2023-01-17T06:41:23.614Z,1.20
2023-01-17T06:43:49.926Z,0.93
2023-01-17T06:46:16.304Z,2.70
2023-01-17T06:48:46.167Z,1.10
2023-01-17T06:51:12.550Z,1.00
2023-01-17T06:53:39.119Z,1.27
2023-01-17T06:56:05.465Z,1.58
2023-01-17T06:58:31.825Z,1.08
2023-01-17T07:00:58.275Z,1.90
2023-01-17T07:03:24.700Z,1.52
2023-01-17T07:05:50.997Z,1.45
2023-01-17T07:08:17.374Z,2.80
2023-01-17T07:10:44.639Z,1.75
2023-01-17T07:13:11.008Z,1.60
2023-01-17T07:15:37.337Z,1.40
2023-01-17T07:18:03.681Z,2.35
2023-01-17T07:20:30.049Z,1.70
2023-01-17T07:22:56.372Z,1.42
2023-01-17T07:25:22.717Z,1.67
2023-01-17T07:27:49.033Z,1.52
2023-01-17T07:30:15.384Z,1.23
2023-01-17T07:32:41.736Z,0.70
2023-01-17T07:35:08.074Z,1.73
2023-01-17T07:37:34.404Z,3.08
2023-01-17T07:40:02.591Z,1.12
2023-01-17T07:42:28.926Z,0.85
2023-01-17T07:44:55.261Z,1.85
2023-01-17T07:47:21.784Z,1.10
2023-01-17T07:49:48.112Z,0.70
2023-01-17T07:52:15.829Z,0.93
2023-01-17T07:54:43.236Z,1.42
2023-01-17T07:57:09.555Z,0.98
2023-01-17T07:59:37.172Z,1.87
2023-01-17T08:02:03.560Z,1.35
2023-01-17T08:04:34.826Z,1.17
2023-01-17T08:07:01.227Z,1.50
2023-01-17T08:09:27.760Z,1.85
2023-01-17T08:11:54.074Z,2.47
2023-01-17T08:14:20.381Z,1.55
2023-01-17T08:16:46.811Z,1.17
2023-01-17T08:19:13.278Z,2.33
2023-01-17T08:21:39.615Z,1.80
2023-01-17T08:24:06.041Z,0.90
2023-01-17T08:26:32.349Z,0.88
2023-01-17T08:29:00.517Z,1.30
2023-01-17T08:31:26.943Z,1.40
2023-01-17T08:33:53.360Z,2.95
2023-01-17T08:36:19.821Z,1.30
2023-01-17T08:38:46.189Z,1.20
2023-01-17T08:41:13.150Z,1.87
2023-01-17T08:43:39.489Z,1.00
2023-01-17T08:46:06.541Z,1.77
2023-01-17T08:48:32.940Z,1.15
2023-01-17T08:50:59.305Z,1.65
2023-01-17T08:53:25.645Z,2.12
2023-01-17T08:55:51.979Z,2.47
2023-01-17T08:58:18.391Z,1.60
2023-01-17T09:00:44.873Z,1.60
2023-01-17T09:03:14.350Z,1.20
2023-01-17T09:05:40.788Z,1.83
2023-01-17T09:08:07.158Z,1.42
2023-01-17T09:10:33.485Z,1.73
2023-01-17T09:12:59.942Z,1.75
2023-01-17T09:15:26.327Z,1.75
2023-01-17T09:17:52.793Z,2.22
2023-01-17T09:20:19.145Z,1.48
2023-01-17T09:22:46.205Z,1.83
2023-01-17T09:25:12.600Z,1.92
2023-01-17T09:27:38.904Z,1.52
2023-01-17T09:30:05.248Z,1.10
2023-01-17T09:32:31.628Z,2.37
2023-01-17T09:35:00.896Z,1.33
2023-01-17T09:37:27.367Z,1.67
2023-01-17T09:39:53.846Z,1.35
2023-01-17T09:42:20.173Z,1.77
2023-01-17T09:44:46.520Z,1.30
2023-01-17T09:47:13.779Z,1.45
2023-01-17T09:49:40.219Z,2.35
2023-01-17T09:52:06.528Z,2.25
2023-01-17T09:54:32.845Z,1.10
2023-01-17T09:56:59.172Z,1.75
2023-01-17T09:59:33.188Z,1.27
2023-01-17T10:02:02.030Z,1.73
2023-01-17T10:04:28.508Z,1.30
2023-01-17T10:06:54.853Z,1.50
2023-01-17T10:09:21.198Z,1.65
2023-01-17T10:11:47.586Z,1.30
2023-01-17T10:14:13.919Z,1.52
2023-01-17T10:16:40.746Z,1.40
2023-01-17T10:19:07.894Z,2.10
2023-01-17T10:21:34.223Z,2.33
2023-01-17T10:24:00.572Z,2.33
2023-01-17T10:26:26.901Z,2.45
2023-01-17T10:28:53.300Z,1.25
2023-01-17T10:31:19.678Z,1.35
2023-01-17T10:33:46.001Z,1.77
2023-01-17T10:36:15.416Z,1.20
2023-01-17T10:38:44.946Z,1.50
2023-01-17T10:41:11.267Z,1.40
2023-01-17T10:43:37.844Z,2.12
2023-01-17T10:46:04.276Z,2.15
2023-01-17T10:48:30.660Z,1.80
2023-01-17T10:50:56.979Z,2.35
2023-01-17T10:53:23.300Z,1.25
2023-01-17T10:55:49.630Z,2.05
2023-01-17T10:58:15.933Z,1.42
2023-01-17T11:00:44.182Z,1.77
2023-01-17T11:03:10.635Z,1.35
2023-01-17T11:05:36.953Z,1.35
2023-01-17T11:08:03.336Z,1.45
2023-01-17T11:10:29.643Z,1.10
2023-01-17T11:12:55.955Z,2.67
2023-01-17T11:15:26.059Z,1.40
2023-01-17T11:17:53.396Z,1.20
2023-01-17T11:20:23.670Z,1.42
2023-01-17T11:22:50.046Z,2.90
2023-01-17T11:25:16.350Z,1.90
2023-01-17T11:27:44.562Z,1.98
2023-01-17T11:30:10.877Z,1.77
2023-01-17T11:32:37.189Z,1.27
2023-01-17T11:35:03.497Z,1.65
2023-01-17T11:37:29.970Z,2.00
2023-01-17T11:39:56.297Z,1.50
2023-01-17T11:42:22.648Z,1.42
2023-01-17T11:44:49.002Z,0.90
2023-01-17T11:47:15.787Z,2.80
2023-01-17T11:49:42.121Z,2.35
2023-01-17T11:52:08.464Z,1.77
2023-01-17T11:54:39.257Z,1.52
2023-01-17T11:57:05.581Z,1.98
2023-01-17T11:59:31.986Z,1.92
2023-01-17T12:01:58.450Z,1.87
2023-01-17T12:04:25.073Z,1.45
2023-01-17T12:06:57.779Z,1.35
2023-01-17T12:09:24.675Z,1.05
2023-01-17T12:12:09.877Z,2.30
2023-01-17T12:14:36.191Z,0.73
2023-01-17T12:17:02.636Z,2.37
2023-01-17T12:19:32.301Z,2.17
2023-01-17T12:21:58.981Z,1.90
2023-01-17T12:24:25.369Z,1.98
2023-01-17T12:26:51.719Z,1.77
2023-01-17T12:29:18.062Z,3.05
2023-01-17T12:31:44.393Z,1.77
2023-01-17T12:34:10.770Z,2.22
2023-01-17T12:36:37.141Z,1.42
2023-01-17T12:39:03.537Z,4.25
2023-01-17T12:41:30.001Z,2.40
2023-01-17T12:43:56.320Z,2.47
2023-01-17T12:46:24.064Z,2.80
2023-01-17T12:48:50.436Z,3.95
2023-01-17T12:51:16.770Z,2.30
2023-01-17T12:53:43.150Z,1.62
2023-01-17T12:56:09.529Z,1.50
2023-01-17T12:58:36.894Z,1.20
2023-01-17T13:01:03.302Z,1.30
2023-01-17T13:03:29.696Z,3.20
2023-01-17T13:05:56.074Z,1.87
2023-01-17T13:08:22.429Z,1.17
2023-01-17T13:10:51.226Z,1.75
2023-01-17T13:13:20.239Z,2.92
2023-01-17T13:15:46.716Z,1.35
2023-01-17T13:18:13.105Z,1.30
2023-01-17T13:20:39.452Z,2.83
2023-01-17T13:23:05.804Z,1.70
2023-01-17T13:25:32.157Z,1.58
2023-01-17T13:27:58.485Z,1.67
2023-01-17T13:30:24.809Z,2.55
2023-01-17T13:32:51.150Z,1.10
2023-01-17T13:35:17.484Z,1.50
2023-01-17T13:37:43.833Z,1.73
2023-01-17T13:40:10.185Z,1.00
2023-01-17T13:42:36.487Z,1.10
2023-01-17T13:45:02.813Z,2.58
2023-01-17T13:47:29.738Z,2.53
2023-01-17T13:49:59.421Z,1.20
2023-01-17T13:52:25.807Z,2.45
2023-01-17T13:54:52.128Z,2.10
2023-01-17T13:57:18.526Z,3.25
2023-01-17T13:59:44.870Z,2.00
2023-01-17T14:02:11.183Z,2.08
2023-01-17T14:04:37.503Z,1.80
2023-01-17T14:07:04.008Z,3.47
2023-01-17T14:09:30.441Z,2.85
2023-01-17T14:11:57.065Z,1.95
2023-01-17T14:14:23.375Z,2.37
2023-01-17T14:16:49.706Z,1.48
2023-01-17T14:19:16.015Z,2.78
2023-01-17T14:21:42.383Z,2.58
2023-01-17T14:24:08.720Z,3.00
2023-01-17T14:26:35.087Z,3.10
2023-01-17T14:29:01.411Z,1.83
2023-01-17T14:31:27.765Z,1.30
2023-01-17T14:33:54.382Z,3.10
2023-01-17T14:36:22.205Z,3.12
2023-01-17T14:38:48.556Z,1.58
2023-01-17T14:41:14.909Z,2.45
2023-01-17T14:43:41.225Z,2.10
2023-01-17T14:46:07.605Z,1.48
2023-01-17T14:48:34.283Z,3.72
2023-01-17T14:51:01.318Z,3.03
2023-01-17T14:53:28.359Z,2.72
2023-01-17T14:55:56.523Z,2.12
2023-01-17T14:58:22.950Z,5.20
2023-01-17T15:00:51.203Z,3.17
2023-01-17T15:03:17.670Z,1.95
2023-01-17T15:05:44.063Z,2.03
2023-01-17T15:08:10.393Z,3.17
2023-01-17T15:10:36.700Z,4.55
2023-01-17T15:13:03.043Z,3.87
2023-01-17T15:15:30.315Z,3.45
2023-01-17T15:17:57.291Z,4.47
2023-01-17T15:20:23.821Z,5.00
2023-01-17T15:22:50.132Z,2.62
2023-01-17T15:25:19.019Z,2.20
2023-01-17T15:27:45.404Z,2.58
2023-01-17T15:30:11.702Z,7.60
2023-01-17T15:32:38.212Z,2.17
2023-01-17T15:35:08.052Z,1.67
2023-01-17T15:37:34.396Z,12.07
2023-01-17T15:40:00.720Z,4.95
2023-01-17T15:42:27.033Z,3.65
2023-01-17T15:44:53.368Z,2.90
2023-01-17T15:47:19.681Z,2.95
2023-01-17T15:49:45.992Z,2.65
2023-01-17T15:52:12.321Z,5.95
2023-01-17T15:54:38.669Z,4.70
2023-01-17T15:57:05.030Z,2.42
2023-01-17T15:59:31.375Z,2.20
2023-01-17T16:01:57.757Z,4.75
2023-01-17T16:04:24.159Z,5.55
2023-01-17T16:06:50.475Z,4.47
2023-01-17T16:09:16.788Z,3.22
2023-01-17T16:11:44.089Z,3.70
2023-01-17T16:14:10.457Z,4.07
2023-01-17T16:16:36.808Z,5.35
2023-01-17T16:19:03.149Z,4.82
2023-01-17T16:21:29.524Z,3.70
2023-01-17T16:23:56.482Z,4.20
2023-01-17T16:26:22.873Z,6.57
2023-01-17T16:28:49.290Z,4.32
2023-01-17T16:31:15.765Z,9.18
2023-01-17T16:33:46.244Z,4.15
2023-01-17T16:36:12.859Z,6.25
2023-01-17T16:38:39.207Z,6.85
2023-01-17T16:41:05.583Z,5.47
2023-01-17T16:43:31.901Z,5.45
2023-01-17T16:45:58.263Z,6.18
2023-01-17T16:48:24.589Z,3.55
2023-01-17T16:50:52.338Z,6.15
2023-01-17T16:53:18.925Z,8.43
2023-01-17T16:55:45.236Z,3.15
2023-01-17T16:58:11.545Z,5.30
2023-01-17T17:00:37.876Z,5.85
2023-01-17T17:03:04.233Z,5.62
2023-01-17T17:05:33.509Z,5.90
2023-01-17T17:07:59.817Z,7.28
2023-01-17T17:10:27.688Z,6.90
2023-01-17T17:12:54.127Z,6.62
2023-01-17T17:15:21.622Z,6.47
2023-01-17T17:17:48.208Z,7.93
2023-01-17T17:20:14.567Z,10.63
2023-01-17T17:22:40.879Z,7.32
2023-01-17T17:25:07.479Z,6.93
2023-01-17T17:27:33.864Z,7.30
2023-01-17T17:30:00.255Z,10.82
2023-01-17T17:32:26.663Z,11.07
2023-01-17T17:34:52.965Z,9.38
2023-01-17T17:37:19.284Z,11.63
2023-01-17T17:39:45.662Z,13.48
2023-01-17T17:42:12.019Z,7.72
2023-01-17T17:44:38.325Z,13.95
2023-01-17T17:47:04.666Z,12.35
2023-01-17T17:49:30.989Z,6.30
2023-01-17T17:51:57.316Z,8.63
2023-01-17T17:54:24.773Z,7.00
2023-01-17T17:56:51.121Z,7.82
2023-01-17T17:59:20.571Z,8.18
2023-01-17T18:01:46.997Z,9.80
2023-01-17T18:04:13.387Z,8.85
2023-01-17T18:06:39.797Z,9.50
2023-01-17T18:09:06.186Z,10.43
2023-01-17T18:11:32.552Z,10.95
2023-01-17T18:13:58.937Z,12.45
2023-01-17T18:16:25.429Z,9.80
2023-01-17T18:18:51.792Z,10.18
2023-01-17T18:21:23.617Z,11.88
2023-01-17T18:23:50.021Z,10.93
2023-01-17T18:26:16.940Z,11.55
2023-01-17T18:28:43.246Z,9.45
2023-01-17T18:31:09.635Z,9.80
2023-01-17T18:33:39.348Z,10.02
2023-01-17T18:36:05.655Z,11.27
2023-01-17T18:38:38.518Z,10.60
2023-01-17T18:41:04.879Z,18.87
2023-01-17T18:43:31.198Z,13.57
2023-01-17T18:45:57.536Z,14.68
2023-01-17T18:48:23.840Z,13.25
2023-01-17T18:50:50.157Z,16.45
2023-01-17T18:53:17.704Z,13.23
2023-01-17T18:55:44.016Z,15.77
2023-01-17T18:58:10.371Z,15.65
2023-01-17T19:00:36.699Z,16.27
2023-01-17T19:03:03.071Z,16.80
2023-01-17T19:05:29.408Z,18.73
2023-01-17T19:07:56.179Z,14.57
2023-01-17T19:10:22.728Z,17.05
2023-01-17T19:12:49.058Z,15.60
2023-01-17T19:15:15.646Z,19.35
2023-01-17T19:17:41.950Z,14.00
2023-01-17T19:20:09.508Z,18.85
2023-01-17T19:22:35.931Z,16.50
2023-01-17T19:25:02.269Z,19.08
2023-01-17T19:27:28.608Z,17.17
2023-01-17T19:29:54.911Z,18.90
2023-01-17T19:32:21.253Z,17.37
2023-01-17T19:34:47.581Z,18.85
2023-01-17T19:37:13.941Z,17.48
2023-01-17T19:39:40.247Z,18.20
2023-01-17T19:42:09.566Z,20.20
2023-01-17T19:44:35.903Z,20.30
2023-01-17T19:47:02.845Z,18.80
2023-01-17T19:49:29.289Z,18.75
2023-01-17T19:51:55.731Z,14.87
2023-01-17T19:54:23.372Z,18.15
2023-01-17T19:56:49.689Z,17.52
2023-01-17T19:59:16.088Z,16.60
2023-01-17T20:01:42.513Z,15.95
2023-01-17T20:04:08.886Z,20.83
2023-01-17T20:06:35.434Z,18.25
2023-01-17T20:09:01.870Z,19.10
2023-01-17T20:11:28.189Z,15.43
2023-01-17T20:13:54.573Z,19.73
2023-01-17T20:16:21.009Z,15.38
2023-01-17T20:18:47.414Z,15.50
2023-01-17T20:21:13.720Z,13.40
2023-01-17T20:23:40.426Z,14.75
2023-01-17T20:26:06.851Z,13.75
2023-01-17T20:28:33.191Z,14.32
2023-01-17T20:31:00.098Z,14.57
2023-01-17T20:33:26.421Z,15.88
2023-01-17T20:36:08.794Z,13.93
2023-01-17T20:38:43.834Z,13.70
2023-01-17T20:41:10.229Z,16.67
2023-01-17T20:43:36.584Z,13.70
2023-01-17T20:46:04.669Z,13.88
2023-01-17T20:48:31.058Z,13.27
2023-01-17T20:50:59.000Z,14.00
2023-01-17T20:53:25.364Z,15.93
2023-01-17T20:55:51.737Z,16.35
2023-01-17T20:58:18.039Z,14.63
2023-01-17T21:00:44.390Z,16.77
2023-01-17T21:03:10.701Z,19.23
2023-01-17T21:05:37.754Z,15.75
2023-01-17T21:08:05.244Z,14.07
2023-01-17T21:10:31.563Z,13.38
2023-01-17T21:12:57.876Z,13.48
2023-01-17T21:15:24.324Z,13.77
2023-01-17T21:17:50.725Z,11.80
2023-01-17T21:20:17.039Z,13.10
2023-01-17T21:22:43.362Z,19.02
2023-01-17T21:25:10.106Z,17.92
2023-01-17T21:27:36.508Z,21.30
2023-01-17T21:30:03.497Z,22.85
2023-01-17T21:32:30.639Z,17.40
2023-01-17T21:34:56.960Z,12.40
2023-01-17T21:37:23.289Z,13.55
2023-01-17T21:39:54.774Z,14.17
2023-01-17T21:42:21.117Z,17.33
2023-01-17T21:44:47.435Z,13.62
2023-01-17T21:47:13.773Z,13.60
2023-01-17T21:49:40.110Z,13.23
2023-01-17T21:52:06.420Z,14.65
2023-01-17T21:54:51.681Z,12.55
2023-01-17T21:57:36.859Z,15.13
2023-01-17T22:00:03.187Z,13.48
2023-01-17T22:02:29.589Z,15.27
2023-01-17T22:04:56.398Z,15.02
2023-01-17T22:07:22.776Z,14.63
2023-01-17T22:09:49.117Z,11.55
2023-01-17T22:12:15.461Z,13.45
2023-01-17T22:14:41.782Z,14.65
2023-01-17T22:17:08.678Z,13.75
2023-01-17T22:19:35.028Z,14.30
2023-01-17T22:22:01.349Z,14.65
2023-01-17T22:24:27.655Z,15.27
2023-01-17T22:26:53.960Z,13.13
2023-01-17T22:29:21.689Z,14.77
2023-01-17T22:31:48.063Z,17.23
2023-01-17T22:34:15.461Z,13.57
2023-01-17T22:36:41.789Z,16.05
2023-01-17T22:39:08.093Z,13.37
2023-01-17T22:41:35.296Z,14.57
2023-01-17T22:44:05.591Z,13.85
2023-01-17T22:46:32.076Z,12.70
2023-01-17T22:48:58.422Z,16.45
2023-01-17T22:51:24.756Z,13.05
2023-01-17T22:53:51.073Z,13.20
2023-01-17T22:56:17.406Z,15.02
2023-01-17T22:58:45.093Z,14.87
2023-01-17T23:01:11.555Z,14.98
2023-01-17T23:03:38.011Z,15.50
2023-01-17T23:06:04.407Z,15.52
2023-01-17T23:08:30.924Z,17.12
2023-01-17T23:11:16.095Z,13.00
2023-01-17T23:13:42.402Z,14.13
2023-01-17T23:16:27.424Z,12.48
2023-01-17T23:19:12.289Z,17.12
2023-01-17T23:21:57.304Z,14.15
2023-01-17T23:24:23.635Z,14.48
2023-01-17T23:27:08.743Z,14.65
2023-01-17T23:29:35.069Z,15.00
2023-01-17T23:32:01.367Z,14.63
2023-01-17T23:34:27.677Z,14.48
2023-01-17T23:36:53.992Z,17.05
2023-01-17T23:39:20.313Z,16.60
2023-01-17T23:42:05.507Z,14.70
2023-01-17T23:44:32.171Z,18.50
2023-01-17T23:46:58.486Z,17.70
2023-01-17T23:49:24.801Z,18.73
2023-01-17T23:51:52.980Z,18.80
2023-01-17T23:54:19.281Z,17.73
2023-01-17T23:56:45.596Z,19.27
2023-01-17T23:59:11.945Z,22.40
